createdAt,value
2022-11-16T00:02:21.221Z,99673.06
2022-11-16T00:05:28.146Z,99662.34
2022-11-16T00:08:33.582Z,99656.13
2022-11-16T00:11:38.078Z,99645.44
2022-11-16T00:14:40.606Z,99642.78
2022-11-16T00:17:43.319Z,99632.09
2022-11-16T00:20:45.850Z,99635.72
2022-11-16T00:23:48.580Z,99633.00
2022-11-16T00:26:53.012Z,99634.75
2022-11-16T00:29:55.764Z,99637.41
2022-11-16T00:33:05.486Z,99636.56
2022-11-16T00:36:11.162Z,99629.41
2022-11-16T00:39:15.069Z,99627.69
2022-11-16T00:42:17.912Z,99625.03
2022-11-16T00:45:20.437Z,99623.22
2022-11-16T00:48:23.248Z,99613.47
2022-11-16T00:51:25.941Z,99604.56
2022-11-16T00:54:28.780Z,99601.03
2022-11-16T00:57:31.341Z,99593.88
2022-11-16T01:00:34.148Z,99593.88
2022-11-16T01:03:37.955Z,99585.84
2022-11-16T01:06:40.866Z,99574.28
2022-11-16T01:09:43.346Z,99566.25
2022-11-16T01:12:47.371Z,99566.25
2022-11-16T01:15:49.954Z,99560.91
2022-11-16T01:18:54.021Z,99565.38
2022-11-16T01:21:56.598Z,99552.91
2022-11-16T01:24:59.318Z,99562.72
2022-11-16T01:28:01.802Z,99566.28
2022-11-16T01:31:05.744Z,99553.78
2022-11-16T01:34:09.182Z,99550.22
2022-11-16T01:37:12.052Z,99546.66
2022-11-16T01:40:15.355Z,99540.38
2022-11-16T01:43:25.721Z,99542.19
2022-11-16T01:46:30.146Z,99543.97
2022-11-16T01:49:36.508Z,99549.31
2022-11-16T01:53:08.519Z,99544.81
2022-11-16T01:56:12.850Z,99542.13
2022-11-16T01:59:16.139Z,99538.56
2022-11-16T02:02:19.131Z,99543.00
2022-11-16T02:05:33.681Z,99544.84
2022-11-16T02:09:18.146Z,99545.69
2022-11-16T02:12:43.588Z,99537.66
2022-11-16T02:15:52.114Z,99535.03
2022-11-16T02:19:10.718Z,99531.47
2022-11-16T02:22:32.017Z,99528.81
2022-11-16T02:25:50.396Z,99524.34
2022-11-16T02:29:16.552Z,99522.59
2022-11-16T02:32:31.897Z,99513.63
2022-11-16T02:35:44.359Z,99519.03
2022-11-16T02:39:01.758Z,99506.47
2022-11-16T02:42:07.317Z,99501.12
2022-11-16T02:45:13.025Z,99485.97
2022-11-16T02:48:26.232Z,99488.56
2022-11-16T02:51:29.623Z,99478.78
2022-11-16T02:54:32.679Z,99479.69
2022-11-16T02:57:43.526Z,99471.69
2022-11-16T03:01:01.589Z,99463.66
2022-11-16T03:04:20.251Z,99449.44
2022-11-16T03:07:27.373Z,99452.13
2022-11-16T03:10:50.568Z,99444.09
2022-11-16T03:14:02.916Z,99436.06
2022-11-16T03:17:32.910Z,99428.94
2022-11-16T03:20:36.211Z,99435.19
2022-11-16T03:23:39.436Z,99430.72
2022-11-16T03:26:49.687Z,99436.03
2022-11-16T03:29:59.545Z,99434.28
2022-11-16T03:33:19.674Z,99434.25
2022-11-16T03:36:28.320Z,99435.13
2022-11-16T03:39:33.971Z,99429.72
2022-11-16T03:42:37.946Z,99415.44
2022-11-16T03:45:41.063Z,99421.72
2022-11-16T03:48:44.481Z,99414.53
2022-11-16T03:51:48.081Z,99404.72
2022-11-16T03:54:51.127Z,99402.94
2022-11-16T03:57:54.006Z,99403.88
2022-11-16T04:00:57.144Z,99405.66
2022-11-16T04:04:02.363Z,99405.66
2022-11-16T04:07:23.588Z,99399.41
2022-11-16T04:10:44.947Z,99400.28
2022-11-16T04:14:09.054Z,99405.63
2022-11-16T04:17:34.214Z,99403.84
2022-11-16T04:20:55.623Z,99395.84
2022-11-16T04:24:13.881Z,99392.28
2022-11-16T04:27:36.140Z,99381.56
2022-11-16T04:31:01.220Z,99384.25
2022-11-16T04:34:22.753Z,99376.16
2022-11-16T04:37:44.623Z,99372.59
2022-11-16T04:40:47.961Z,99376.19
2022-11-16T04:43:50.780Z,99366.38
2022-11-16T04:47:06.929Z,99372.56
2022-11-16T04:50:10.190Z,99370.81
2022-11-16T04:53:13.946Z,99364.50
2022-11-16T04:56:18.617Z,99358.31
2022-11-16T04:59:22.503Z,99360.09
2022-11-16T05:02:26.082Z,99357.38
2022-11-16T05:05:29.016Z,99356.44
2022-11-16T05:08:32.881Z,99346.66
2022-11-16T05:11:35.852Z,99346.66
2022-11-16T05:14:38.811Z,99339.56
2022-11-16T05:17:41.254Z,99341.34
2022-11-16T05:21:00.977Z,99344.91
2022-11-16T05:24:22.590Z,99343.13
2022-11-16T05:27:27.238Z,99344.91
2022-11-16T05:30:30.360Z,99342.22
2022-11-16T05:33:33.955Z,99346.72
2022-11-16T05:36:36.792Z,99343.94
2022-11-16T05:39:39.946Z,99350.22
2022-11-16T05:42:42.575Z,99336.78
2022-11-16T05:45:45.576Z,99343.06
2022-11-16T05:48:49.015Z,99336.88
2022-11-16T05:51:52.016Z,99338.66
2022-11-16T05:54:54.791Z,99342.22
2022-11-16T05:57:58.197Z,99347.56
2022-11-16T06:01:01.139Z,99349.31
2022-11-16T06:04:04.026Z,99344.84
2022-11-16T06:07:07.151Z,99335.91
2022-11-16T06:10:10.573Z,99336.78
2022-11-16T06:13:13.855Z,99323.34
2022-11-16T06:16:16.789Z,99316.22
2022-11-16T06:19:19.242Z,99308.16
2022-11-16T06:22:22.035Z,99316.19
2022-11-16T06:25:24.734Z,99312.59
2022-11-16T06:28:28.233Z,99310.75
2022-11-16T06:31:30.896Z,99318.78
2022-11-16T06:34:36.811Z,99327.69
2022-11-16T06:37:39.514Z,99325.06
2022-11-16T06:40:43.135Z,99318.78
2022-11-16T06:43:45.697Z,99325.84
2022-11-16T06:46:49.295Z,99309.06
2022-11-16T06:49:51.984Z,99316.94
2022-11-16T06:52:55.540Z,99303.53
2022-11-16T06:56:03.173Z,99297.28
2022-11-16T06:59:06.749Z,99303.53
2022-11-16T07:02:11.315Z,99294.69
2022-11-16T07:05:14.835Z,99306.28
2022-11-16T07:08:17.826Z,99307.94
2022-11-16T07:11:20.897Z,99302.47
2022-11-16T07:14:23.870Z,99296.25
2022-11-16T07:17:26.967Z,99289.97
2022-11-16T07:20:29.541Z,99288.16
2022-11-16T07:23:33.553Z,99287.19
2022-11-16T07:26:36.667Z,99288.00
2022-11-16T07:29:40.758Z,99288.88
2022-11-16T07:32:44.042Z,99284.41
2022-11-16T07:35:47.193Z,99288.81
2022-11-16T07:38:49.731Z,99285.25
2022-11-16T07:41:54.415Z,99282.50
2022-11-16T07:44:57.409Z,99269.34
2022-11-16T07:48:01.082Z,99275.44
2022-11-16T07:51:08.258Z,99284.31
2022-11-16T07:54:15.197Z,99274.56
2022-11-16T07:57:17.700Z,99279.03
2022-11-16T08:00:20.542Z,99270.06
2022-11-16T08:03:24.934Z,99275.34
2022-11-16T08:06:30.101Z,99256.66
2022-11-16T08:09:34.803Z,99268.16
2022-11-16T08:12:37.664Z,99256.56
2022-11-16T08:15:41.361Z,99263.59
2022-11-16T08:18:44.891Z,99257.41
2022-11-16T08:21:48.070Z,99252.09
2022-11-16T08:24:50.787Z,99252.06
2022-11-16T08:27:53.697Z,99250.28
2022-11-16T08:30:57.097Z,99251.97
2022-11-16T08:34:00.614Z,99243.03
2022-11-16T08:37:03.582Z,99243.91
2022-11-16T08:40:08.098Z,99251.88
2022-11-16T08:43:12.258Z,99249.13
2022-11-16T08:46:15.635Z,99247.25
2022-11-16T08:49:18.999Z,99252.66
2022-11-16T08:52:22.852Z,99252.63
2022-11-16T08:55:26.041Z,99247.25
2022-11-16T08:58:29.177Z,99247.25
2022-11-16T09:01:32.914Z,99248.16
2022-11-16T09:04:37.162Z,99253.41
2022-11-16T09:07:40.880Z,99258.78
2022-11-16T09:10:44.093Z,99255.94
2022-11-16T09:13:48.066Z,99256.69
2022-11-16T09:16:52.325Z,99281.56
2022-11-16T09:19:55.416Z,99277.31
2022-11-16T09:22:58.191Z,99273.81
2022-11-16T09:26:03.831Z,99275.63
2022-11-16T09:29:11.751Z,99280.88
2022-11-16T09:32:14.216Z,99280.78
2022-11-16T09:35:17.478Z,99269.25
2022-11-16T09:38:30.524Z,99264.63
2022-11-16T09:41:50.713Z,99261.94
2022-11-16T09:45:01.344Z,99267.25
2022-11-16T09:48:06.117Z,99269.03
2022-11-16T09:51:12.814Z,99262.78
2022-11-16T09:54:20.362Z,99270.78
2022-11-16T09:57:29.757Z,99265.47
2022-11-16T10:00:33.565Z,99265.41
2022-11-16T10:03:41.307Z,99263.59
2022-11-16T10:07:03.783Z,99255.59
2022-11-16T10:10:15.848Z,99252.13
2022-11-16T10:13:37.162Z,99243.19
2022-11-16T10:16:48.096Z,99248.50
2022-11-16T10:19:56.495Z,99232.41
2022-11-16T10:23:15.225Z,99222.53
2022-11-16T10:26:46.285Z,99220.66
2022-11-16T10:30:17.245Z,99217.94
2022-11-16T10:33:21.139Z,99213.44
2022-11-16T10:36:27.543Z,99214.22
2022-11-16T10:39:31.482Z,99206.28
2022-11-16T10:42:39.458Z,99200.72
2022-11-16T10:45:47.727Z,99203.34
2022-11-16T10:49:05.356Z,99196.19
2022-11-16T10:52:07.891Z,99204.34
2022-11-16T10:55:15.601Z,99197.19
2022-11-16T10:58:18.120Z,99198.06
2022-11-16T11:01:38.465Z,99200.63
2022-11-16T11:04:41.013Z,99203.28
2022-11-16T11:07:55.315Z,99197.16
2022-11-16T11:11:25.007Z,99193.53
2022-11-16T11:14:27.770Z,99193.47
2022-11-16T11:17:32.734Z,99187.19
2022-11-16T11:20:38.077Z,99187.22
2022-11-16T11:23:50.905Z,99183.44
2022-11-16T11:26:55.814Z,99186.00
2022-11-16T11:29:59.227Z,99185.13
2022-11-16T11:33:09.850Z,99177.97
2022-11-16T11:36:21.253Z,99188.72
2022-11-16T11:39:24.130Z,99184.97
2022-11-16T11:42:26.762Z,99175.41
2022-11-16T11:45:46.709Z,99184.97
2022-11-16T11:48:58.536Z,99176.09
2022-11-16T11:52:18.887Z,99178.63
2022-11-16T11:55:21.575Z,99185.97
2022-11-16T11:58:35.864Z,99181.56
2022-11-16T12:02:06.456Z,99183.28
2022-11-16T12:05:48.905Z,99186.78
2022-11-16T12:09:05.116Z,99183.28
2022-11-16T12:12:21.690Z,99187.81
2022-11-16T12:15:59.349Z,99177.97
2022-11-16T12:19:11.596Z,99175.38
2022-11-16T12:22:28.969Z,99175.44
2022-11-16T12:25:41.622Z,99172.75
2022-11-16T12:28:56.237Z,99176.16
2022-11-16T12:32:01.648Z,99159.00
2022-11-16T12:35:33.724Z,99167.16
2022-11-16T12:38:57.988Z,99164.66
2022-11-16T12:42:09.242Z,99162.78
2022-11-16T12:45:36.497Z,99169.03
2022-11-16T12:48:49.592Z,99157.66
2022-11-16T12:52:15.290Z,99168.19
2022-11-16T12:55:32.333Z,99173.62
2022-11-16T12:58:52.612Z,99167.53
2022-11-16T13:02:08.217Z,99172.75
2022-11-16T13:05:18.986Z,99173.88
2022-11-16T13:08:21.471Z,99164.91
2022-11-16T13:11:28.126Z,99167.03
2022-11-16T13:14:37.614Z,99175.25
2022-11-16T13:17:54.323Z,99166.47
2022-11-16T13:21:13.499Z,99171.88
2022-11-16T13:24:47.068Z,99169.31
2022-11-16T13:28:10.837Z,99168.38
2022-11-16T13:31:26.192Z,99171.09
2022-11-16T13:34:33.281Z,99169.41
2022-11-16T13:37:39.021Z,99160.47
2022-11-16T13:40:41.738Z,99153.25
2022-11-16T13:43:50.650Z,99153.19
2022-11-16T13:46:56.186Z,99157.59
2022-11-16T13:50:01.617Z,99157.56
2022-11-16T13:54:10.737Z,99144.03
2022-11-16T13:57:02.869Z,99143.94
2022-11-16T14:00:11.813Z,99136.59
2022-11-16T14:03:17.597Z,99137.50
2022-11-16T14:06:19.964Z,99146.50
2022-11-16T14:09:50.415Z,99138.31
2022-11-16T14:12:54.464Z,99139.16
2022-11-16T14:16:15.597Z,99134.69
2022-11-16T14:19:44.471Z,99141.84
2022-11-16T14:23:06.735Z,99119.72
2022-11-16T14:26:24.629Z,99120.50
2022-11-16T14:29:36.743Z,99140.00
2022-11-16T14:32:47.832Z,99133.84
2022-11-16T14:35:52.793Z,99127.50
2022-11-16T14:38:55.597Z,99125.81
2022-11-16T14:42:02.093Z,99125.00
2022-11-16T14:45:16.483Z,99121.38
2022-11-16T14:48:21.865Z,99131.25
2022-11-16T14:51:31.622Z,99123.25
2022-11-16T14:54:39.407Z,99127.84
2022-11-16T14:57:42.133Z,99125.22
2022-11-16T15:00:58.022Z,99129.72
2022-11-16T15:04:06.514Z,99123.56
2022-11-16T15:07:11.363Z,99137.88
2022-11-16T15:10:17.368Z,99127.16
2022-11-16T15:13:21.869Z,99125.37
2022-11-16T15:16:24.334Z,99123.56
2022-11-16T15:19:30.848Z,99116.34
2022-11-16T15:22:40.622Z,99121.69
2022-11-16T15:25:52.788Z,99122.56
2022-11-16T15:28:55.408Z,99115.44
2022-11-16T15:31:58.536Z,99113.69
2022-11-16T15:35:05.194Z,99108.31
2022-11-16T15:38:28.451Z,99114.59
2022-11-16T15:41:31.071Z,99115.50
2022-11-16T15:44:33.842Z,99105.72
2022-11-16T15:47:37.453Z,99111.09
2022-11-16T15:50:40.396Z,99099.50
2022-11-16T15:53:45.184Z,99106.69
2022-11-16T15:56:48.314Z,99097.84
2022-11-16T15:59:56.270Z,99096.06
2022-11-16T16:03:04.303Z,99095.19
2022-11-16T16:06:08.717Z,99098.75
2022-11-16T16:09:18.117Z,99094.34
2022-11-16T16:12:22.724Z,99104.19
2022-11-16T16:15:29.883Z,99099.72
2022-11-16T16:18:41.718Z,99098.00
2022-11-16T16:21:45.956Z,99085.56
2022-11-16T16:24:48.747Z,99083.78
2022-11-16T16:27:51.247Z,99081.16
2022-11-16T16:30:54.035Z,99082.12
2022-11-16T16:33:56.747Z,99081.28
2022-11-16T16:36:59.671Z,99086.63
2022-11-16T16:40:02.279Z,99086.72
2022-11-16T16:43:05.116Z,99079.66
2022-11-16T16:46:07.573Z,99078.75
2022-11-16T16:49:10.831Z,99079.72
2022-11-16T16:52:13.776Z,99077.97
2022-11-16T16:55:16.645Z,99075.31
2022-11-16T16:58:19.349Z,99072.66
2022-11-16T17:01:22.245Z,99079.78
2022-11-16T17:04:25.533Z,99070.94
2022-11-16T17:07:29.579Z,99068.31
2022-11-16T17:10:32.599Z,99064.78
2022-11-16T17:13:35.771Z,99070.13
2022-11-16T17:16:38.705Z,99067.44
2022-11-16T17:19:41.798Z,99064.72
2022-11-16T17:22:44.571Z,99063.87
2022-11-16T17:25:47.597Z,99060.28
2022-11-16T17:28:55.589Z,99058.47
2022-11-16T17:31:58.999Z,99061.13
2022-11-16T17:35:01.762Z,99067.31
2022-11-16T17:38:04.857Z,99072.66
2022-11-16T17:41:15.681Z,99061.03
2022-11-16T17:44:21.893Z,99070.81
2022-11-16T17:47:24.833Z,99070.91
2022-11-16T17:50:27.918Z,99062.84
2022-11-16T17:53:32.801Z,99070.94
2022-11-16T17:56:36.137Z,99072.72
2022-11-16T17:59:41.117Z,99080.66
2022-11-16T18:02:44.003Z,99075.47
2022-11-16T18:05:46.872Z,99071.91
2022-11-16T18:08:49.842Z,99080.00
2022-11-16T18:11:52.863Z,99080.00
2022-11-16T18:15:26.333Z,99074.72
2022-11-16T18:18:18.369Z,99081.94
2022-11-16T18:21:21.186Z,99073.94
2022-11-16T18:24:24.079Z,99073.97
2022-11-16T18:27:26.796Z,99073.97
2022-11-16T18:30:29.833Z,99068.59
2022-11-16T18:33:33.157Z,99067.75
2022-11-16T18:36:36.188Z,99058.97
2022-11-16T18:39:38.864Z,99069.56
2022-11-16T18:42:41.944Z,99066.03
2022-11-16T18:45:44.462Z,99071.50
2022-11-16T18:48:47.594Z,99064.37
2022-11-16T18:51:50.573Z,99068.88
2022-11-16T18:54:53.535Z,99070.69
2022-11-16T18:57:56.279Z,99058.19
2022-11-16T19:01:04.263Z,99059.12
2022-11-16T19:04:08.841Z,99056.44
2022-11-16T19:07:13.133Z,99058.25
2022-11-16T19:10:16.341Z,99053.75
2022-11-16T19:13:19.720Z,99059.16
2022-11-16T19:16:24.167Z,99060.94
2022-11-16T19:19:28.033Z,99061.84
2022-11-16T19:22:33.575Z,99063.66
2022-11-16T19:25:36.538Z,99060.97
2022-11-16T19:28:41.659Z,99064.59
2022-11-16T19:31:44.669Z,99053.94
2022-11-16T19:34:47.434Z,99054.81
2022-11-16T19:37:51.527Z,99061.97
2022-11-16T19:40:54.332Z,99056.63
2022-11-16T19:43:59.951Z,99064.63
2022-11-16T19:47:02.731Z,99061.91
2022-11-16T19:50:06.978Z,99058.34
2022-11-16T19:53:09.934Z,99069.97
2022-11-16T19:56:14.914Z,99078.87
2022-11-16T19:59:18.069Z,99069.00
2022-11-16T20:02:21.092Z,99046.03
2022-11-16T20:05:25.491Z,99068.09
2022-11-16T20:08:27.964Z,99056.44
2022-11-16T20:11:33.830Z,99062.69
2022-11-16T20:14:36.630Z,99064.50
2022-11-16T20:17:39.669Z,99068.94
2022-11-16T20:20:42.352Z,99073.38
2022-11-16T20:23:45.663Z,99072.50
2022-11-16T20:26:49.170Z,99063.56
2022-11-16T20:29:52.455Z,99050.16
2022-11-16T20:32:55.159Z,99045.69
2022-11-16T20:36:08.697Z,99048.47
2022-11-16T20:39:15.952Z,99036.97
2022-11-16T20:42:21.869Z,99045.06
2022-11-16T20:45:24.811Z,99056.56
2022-11-16T20:48:27.658Z,99042.25
2022-11-16T20:51:30.639Z,99044.06
2022-11-16T20:54:33.771Z,99041.41
2022-11-16T20:57:36.443Z,99039.50
2022-11-16T21:00:39.411Z,99036.00
2022-11-16T21:03:42.636Z,99022.66
2022-11-16T21:06:45.614Z,98991.69
2022-11-16T21:10:06.537Z,99009.38
2022-11-16T21:13:32.631Z,99018.41
2022-11-16T21:16:35.420Z,99016.75
2022-11-16T21:19:38.394Z,99013.28
2022-11-16T21:22:40.909Z,99009.75
2022-11-16T21:25:43.678Z,99004.50
2022-11-16T21:28:46.283Z,98996.44
2022-11-16T21:31:49.081Z,98996.34
2022-11-16T21:34:51.522Z,98995.44
2022-11-16T21:37:54.332Z,98991.78
2022-11-16T21:40:56.832Z,98994.50
2022-11-16T21:43:59.584Z,98982.91
2022-11-16T21:47:02.052Z,98977.59
2022-11-16T21:53:27.598Z,98975.06
2022-11-16T21:56:30.290Z,98975.19
2022-11-16T21:59:32.721Z,98975.28
2022-11-16T22:02:35.486Z,98974.50
2022-11-16T22:05:56.886Z,98972.78
2022-11-16T22:08:59.484Z,98975.53
2022-11-16T22:12:05.262Z,98974.66
2022-11-16T22:15:08.380Z,98971.06
2022-11-16T22:18:11.310Z,98948.22
2022-11-16T22:21:13.851Z,98954.31
2022-11-16T22:24:16.584Z,98962.31
2022-11-16T22:27:19.389Z,98970.38
2022-11-16T22:30:22.202Z,98977.69
2022-11-16T22:33:24.674Z,98977.75
2022-11-16T22:36:27.438Z,98977.78
2022-11-16T22:39:29.985Z,98986.84
2022-11-16T22:42:32.815Z,98990.41
2022-11-16T22:45:35.270Z,98991.19
2022-11-16T22:48:39.961Z,98992.88
2022-11-16T22:51:42.450Z,98984.81
2022-11-16T22:54:45.181Z,98998.94
2022-11-16T22:57:47.627Z,99003.25
2022-11-16T23:00:51.808Z,98996.00
2022-11-16T23:03:54.410Z,99000.34
2022-11-16T23:06:57.175Z,99007.44
2022-11-16T23:09:59.713Z,99009.09
2022-11-16T23:13:20.768Z,99014.44
2022-11-16T23:16:23.412Z,99012.59
2022-11-16T23:19:45.227Z,99012.63
2022-11-16T23:23:06.096Z,99008.16
2022-11-16T23:26:34.120Z,99009.09
2022-11-16T23:29:36.661Z,99004.66
2022-11-16T23:32:39.497Z,99019.91
2022-11-16T23:35:41.982Z,99008.38
2022-11-16T23:38:44.749Z,98998.59
2022-11-16T23:42:05.912Z,99000.47
2022-11-16T23:45:08.987Z,99001.44
2022-11-16T23:48:14.177Z,99001.47
2022-11-16T23:51:18.741Z,99000.59
2022-11-16T23:54:21.215Z,99001.47
2022-11-16T23:57:23.941Z,99010.37
